Other Surface Observations
Issued by NWS Great Falls, MT

Home | Current Version | Previous Version | Text Only | Print | Product List | Glossary On
Versions: 1 2 3 4 5 6 7 8 9 10 11 12 13 14 15 16 17 18 19 20 21 22 23 24 25 26 27 28 29 30 31 32 33 34 35 36 37 38 39 40 41 42 43 44 45 46 47 48 49 50
000
SXUS55 KTFX 251844
OSOTFX

AREA AWOS OBSERVATIONS
NATIONAL WEATHER SERVICE GREAT FALLS MT
1244 PM MDT Wed Apr 25 2018

METAR K3U3 251843Z AUTO 24014G23KTKT 16/M08 A3013
METAR KS71 251844Z AUTO 32015G21KTKT 10SM 14/M02 A3000
METAR K38S 251843Z AUTO 31011KT 10SM 17/M06 A3013
METAR K6S5 251843Z AUTO 15006 10SM 18/M04 A3012
METAR K1S3 251843Z AUTO 24015G19KTKT 18/M03 A2997
METAR KPWD 251843Z AUTO 27014G18KTKT 10SM 17/M03 A2984
METAR KPO1 251843Z AUTO 25017G21KTKT  10SM 16/M02 A2988



USA.gov is the U.S. government's official web portal to all federal, state and local government web resources and services.